createdAt,value
2022-11-19T00:01:03.071Z,13.60
2022-11-19T00:03:31.693Z,15.70
2022-11-19T00:06:02.942Z,15.03
2022-11-19T00:08:30.089Z,15.43
2022-11-19T00:11:08.161Z,14.40
2022-11-19T00:13:36.860Z,14.57
2022-11-19T00:16:05.336Z,14.37
2022-11-19T00:18:32.698Z,15.03
2022-11-19T00:21:10.203Z,15.40
2022-11-19T00:23:37.436Z,16.60
2022-11-19T00:26:08.373Z,14.90
2022-11-19T00:28:35.570Z,15.33
2022-11-19T00:31:07.493Z,16.03
2022-11-19T00:33:34.866Z,15.03
2022-11-19T00:36:02.453Z,15.27
2022-11-19T00:38:30.272Z,17.50
2022-11-19T00:40:57.720Z,19.97
2022-11-19T00:43:43.519Z,15.87
2022-11-19T00:46:11.255Z,18.27
2022-11-19T00:48:39.263Z,17.47
2022-11-19T00:51:07.237Z,17.47
2022-11-19T00:53:34.495Z,19.27
2022-11-19T00:56:02.109Z,19.10
2022-11-19T00:58:29.637Z,18.87
2022-11-19T01:00:57.095Z,18.80
2022-11-19T01:03:24.631Z,17.43
2022-11-19T01:05:51.778Z,19.07
2022-11-19T01:08:18.928Z,20.60
2022-11-19T01:10:46.144Z,19.70
2022-11-19T01:13:32.023Z,24.97
2022-11-19T01:15:59.419Z,22.40
2022-11-19T01:18:26.833Z,26.03
2022-11-19T01:20:54.269Z,26.97
2022-11-19T01:23:21.459Z,27.03
2022-11-19T01:25:48.725Z,26.07
2022-11-19T01:28:15.854Z,29.37
2022-11-19T01:30:43.877Z,27.97
2022-11-19T01:33:11.194Z,31.33
2022-11-19T01:35:38.355Z,29.80
2022-11-19T01:38:05.937Z,29.60
2022-11-19T01:40:33.269Z,31.67
2022-11-19T01:43:00.388Z,34.37
2022-11-19T01:45:30.189Z,37.33
2022-11-19T01:48:17.537Z,36.63
2022-11-19T01:50:52.961Z,38.13
2022-11-19T01:53:20.708Z,39.33
2022-11-19T01:55:48.055Z,43.03
2022-11-19T01:58:17.717Z,39.37
2022-11-19T02:00:44.829Z,40.83
2022-11-19T02:03:12.919Z,46.07
2022-11-19T02:05:41.096Z,44.47
2022-11-19T02:08:08.944Z,43.43
2022-11-19T02:10:58.255Z,46.57
2022-11-19T02:13:37.653Z,46.87
2022-11-19T02:16:19.623Z,46.33
2022-11-19T02:19:02.065Z,48.37
2022-11-19T02:21:35.570Z,38.63
2022-11-19T02:24:22.930Z,46.40
2022-11-19T02:27:16.060Z,44.90
2022-11-19T02:30:01.889Z,49.03
2022-11-19T02:32:34.866Z,48.50
2022-11-19T02:35:07.837Z,45.80
2022-11-19T02:37:55.167Z,51.23
2022-11-19T02:40:35.035Z,53.87
2022-11-19T02:43:08.651Z,49.50
2022-11-19T02:45:38.470Z,47.33
2022-11-19T02:48:25.819Z,49.90
2022-11-19T02:50:54.372Z,47.47
2022-11-19T02:53:22.382Z,47.40
2022-11-19T02:56:07.977Z,50.20
2022-11-19T02:58:55.255Z,47.90
2022-11-19T03:01:41.905Z,50.13
2022-11-19T03:04:28.746Z,46.13
2022-11-19T03:06:57.225Z,46.60
2022-11-19T03:09:24.591Z,50.03
2022-11-19T03:11:57.756Z,51.20
2022-11-19T03:14:45.203Z,50.60
2022-11-19T03:17:15.139Z,50.23
2022-11-19T03:19:42.227Z,47.17
2022-11-19T03:22:30.426Z,44.43
2022-11-19T03:25:01.149Z,48.07
2022-11-19T03:27:38.142Z,51.70
2022-11-19T03:30:06.303Z,48.67
2022-11-19T03:32:36.189Z,49.17
2022-11-19T03:35:06.741Z,49.93
2022-11-19T03:37:38.633Z,45.53
2022-11-19T03:40:06.807Z,49.47
2022-11-19T03:42:34.906Z,48.53
2022-11-19T03:45:04.461Z,47.13
2022-11-19T03:47:35.417Z,48.50
2022-11-19T03:50:21.306Z,48.83
2022-11-19T03:52:48.434Z,48.63
2022-11-19T03:55:16.388Z,44.67
2022-11-19T03:57:44.133Z,46.67
2022-11-19T04:00:11.722Z,44.90
2022-11-19T04:02:38.873Z,48.27
2022-11-19T04:05:06.165Z,50.53
2022-11-19T04:07:33.255Z,52.90
2022-11-19T04:10:00.394Z,53.87
2022-11-19T04:12:27.596Z,53.07
2022-11-19T04:14:54.707Z,51.33
2022-11-19T04:17:21.831Z,49.33
2022-11-19T04:19:48.981Z,49.47
2022-11-19T04:22:16.106Z,51.40
2022-11-19T04:24:43.266Z,53.37
2022-11-19T04:27:10.404Z,48.37
2022-11-19T04:29:37.573Z,47.50
2022-11-19T04:32:04.763Z,47.80
2022-11-19T04:34:31.958Z,45.10
2022-11-19T04:36:59.070Z,48.93
2022-11-19T04:39:26.800Z,48.47
2022-11-19T04:41:53.933Z,47.80
2022-11-19T04:44:21.021Z,49.00
2022-11-19T04:46:48.094Z,46.67
2022-11-19T04:49:15.218Z,48.83
2022-11-19T04:51:42.306Z,50.47
2022-11-19T04:54:09.458Z,50.43
2022-11-19T04:56:36.958Z,52.00
2022-11-19T04:59:04.296Z,52.37
2022-11-19T05:01:31.755Z,48.23
2022-11-19T05:03:58.978Z,56.47
2022-11-19T05:06:26.084Z,47.97
2022-11-19T05:08:53.181Z,49.43
2022-11-19T05:11:20.319Z,51.63
2022-11-19T05:13:47.463Z,53.73
2022-11-19T05:16:14.573Z,53.73
2022-11-19T05:18:41.675Z,53.60
2022-11-19T05:21:08.814Z,55.73
2022-11-19T05:23:35.913Z,58.53
2022-11-19T05:26:03.017Z,57.70
2022-11-19T05:28:38.973Z,57.63
2022-11-19T05:31:07.039Z,70.37
2022-11-19T05:33:34.749Z,67.37
2022-11-19T05:36:02.071Z,61.87
2022-11-19T05:38:29.179Z,61.67
2022-11-19T05:40:56.285Z,62.20
2022-11-19T05:43:23.396Z,58.83
2022-11-19T05:45:50.502Z,57.53
2022-11-19T05:48:17.569Z,59.50
2022-11-19T05:50:44.670Z,59.80
2022-11-19T05:53:11.861Z,59.83
2022-11-19T05:55:38.990Z,65.73
2022-11-19T05:58:06.123Z,61.13
2022-11-19T06:00:33.251Z,59.37
2022-11-19T06:03:00.491Z,64.47
2022-11-19T06:05:27.679Z,61.40
2022-11-19T06:07:54.825Z,60.43
2022-11-19T06:10:21.906Z,61.90
2022-11-19T06:12:49.098Z,63.97
2022-11-19T06:15:16.222Z,56.17
2022-11-19T06:17:43.417Z,69.53
2022-11-19T06:20:11.287Z,67.97
2022-11-19T06:22:38.619Z,69.40
2022-11-19T06:25:05.929Z,64.57
2022-11-19T06:27:33.020Z,58.63
2022-11-19T06:30:00.097Z,59.20
2022-11-19T06:32:27.555Z,60.23
2022-11-19T06:34:54.638Z,59.80
2022-11-19T06:37:21.736Z,57.60
2022-11-19T06:39:48.815Z,53.70
2022-11-19T06:42:34.704Z,60.37
2022-11-19T06:45:01.817Z,62.13
2022-11-19T06:47:31.064Z,61.83
2022-11-19T06:49:58.301Z,56.70
2022-11-19T06:52:25.861Z,54.63
2022-11-19T06:54:53.099Z,59.10
2022-11-19T06:57:20.266Z,51.90
2022-11-19T06:59:47.416Z,54.33
2022-11-19T07:02:17.849Z,57.20
2022-11-19T07:04:47.498Z,63.50
2022-11-19T07:07:14.667Z,60.43
2022-11-19T07:09:41.873Z,60.37
2022-11-19T07:12:09.251Z,60.30
2022-11-19T07:14:36.319Z,58.63
2022-11-19T07:17:03.669Z,60.77
2022-11-19T07:19:30.989Z,55.63
2022-11-19T07:21:58.417Z,51.07
2022-11-19T07:24:25.527Z,60.23
2022-11-19T07:26:52.618Z,58.67
2022-11-19T07:29:20.102Z,57.60
2022-11-19T07:31:50.428Z,54.47
2022-11-19T07:34:18.059Z,54.33
2022-11-19T07:36:45.509Z,54.43
2022-11-19T07:39:12.747Z,54.70
2022-11-19T07:41:58.813Z,53.67
2022-11-19T07:44:25.929Z,52.07
2022-11-19T07:46:53.324Z,62.10
2022-11-19T07:49:21.204Z,64.87
2022-11-19T07:51:48.671Z,68.03
2022-11-19T07:54:15.840Z,71.33
2022-11-19T07:56:43.127Z,65.60
2022-11-19T07:59:10.557Z,69.03
2022-11-19T08:01:38.150Z,63.33
2022-11-19T08:04:05.599Z,71.37
2022-11-19T08:06:34.554Z,71.00
2022-11-19T08:09:02.364Z,51.90
2022-11-19T08:11:29.484Z,60.10
2022-11-19T08:13:56.630Z,57.63
2022-11-19T08:16:42.321Z,55.50
2022-11-19T08:19:11.474Z,56.03
2022-11-19T08:21:41.252Z,57.37
2022-11-19T08:24:09.011Z,62.20
2022-11-19T08:26:36.240Z,59.60
2022-11-19T08:29:03.426Z,66.13
2022-11-19T08:31:30.589Z,61.57
2022-11-19T08:33:57.707Z,63.50
2022-11-19T08:36:24.861Z,63.57
2022-11-19T08:38:52.095Z,63.33
2022-11-19T08:41:37.688Z,63.73
2022-11-19T08:44:04.784Z,55.87
2022-11-19T08:46:31.871Z,59.33
2022-11-19T08:48:59.052Z,60.27
2022-11-19T08:51:26.214Z,58.33
2022-11-19T08:53:53.573Z,59.40
2022-11-19T08:56:20.959Z,61.07
2022-11-19T08:58:48.400Z,59.57
2022-11-19T09:01:16.562Z,62.60
2022-11-19T09:03:44.186Z,61.80
2022-11-19T09:06:11.702Z,61.63
2022-11-19T09:08:39.045Z,63.90
2022-11-19T09:11:09.267Z,57.30
2022-11-19T09:13:37.106Z,58.83
2022-11-19T09:16:04.696Z,60.33
2022-11-19T09:18:32.506Z,67.40
2022-11-19T09:20:59.964Z,64.93
2022-11-19T09:23:27.949Z,62.93
2022-11-19T09:26:02.545Z,66.33
2022-11-19T09:28:30.132Z,65.47
2022-11-19T09:30:57.249Z,66.67
2022-11-19T09:33:24.519Z,68.57
2022-11-19T09:35:51.657Z,69.43
2022-11-19T09:38:18.792Z,58.87
2022-11-19T09:40:51.806Z,55.80
2022-11-19T09:43:22.010Z,58.60
2022-11-19T09:46:03.377Z,64.20
2022-11-19T09:48:37.527Z,57.07
2022-11-19T09:51:15.988Z,53.80
2022-11-19T09:53:46.073Z,61.20
2022-11-19T09:56:16.517Z,55.10
2022-11-19T09:58:45.250Z,59.37
2022-11-19T10:01:17.341Z,59.33
2022-11-19T10:03:51.438Z,61.27
2022-11-19T10:06:35.705Z,62.13
2022-11-19T10:09:19.223Z,53.33
2022-11-19T10:11:58.555Z,53.83
2022-11-19T10:14:25.674Z,59.00
2022-11-19T10:17:08.087Z,57.63
2022-11-19T10:19:54.230Z,55.63
2022-11-19T10:22:23.631Z,54.97
2022-11-19T10:25:00.291Z,60.67
2022-11-19T10:27:33.106Z,60.00
2022-11-19T10:30:02.958Z,60.13
2022-11-19T10:32:30.315Z,62.27
2022-11-19T10:34:59.922Z,62.87
2022-11-19T10:37:30.709Z,61.70
2022-11-19T10:40:17.762Z,65.23
2022-11-19T10:43:08.167Z,59.00
2022-11-19T10:45:35.466Z,63.00
2022-11-19T10:48:08.908Z,59.83
2022-11-19T10:50:36.606Z,60.67
2022-11-19T10:53:09.504Z,59.53
2022-11-19T10:55:41.791Z,66.27
2022-11-19T10:58:16.520Z,63.40
2022-11-19T11:00:44.175Z,65.83
2022-11-19T11:03:20.199Z,61.37
2022-11-19T11:05:56.100Z,63.33
2022-11-19T11:08:23.578Z,61.43
2022-11-19T11:10:51.840Z,69.60
2022-11-19T11:13:46.723Z,72.77
2022-11-19T11:16:18.912Z,70.90
2022-11-19T11:18:47.095Z,67.67
2022-11-19T11:21:31.572Z,72.43
2022-11-19T11:23:59.158Z,59.60
2022-11-19T11:26:27.946Z,59.53
2022-11-19T11:29:02.765Z,58.43
2022-11-19T11:31:34.647Z,57.17
2022-11-19T11:34:02.403Z,56.03
2022-11-19T11:36:31.447Z,57.00
2022-11-19T11:39:00.112Z,55.57
2022-11-19T11:44:24.132Z,56.03
2022-11-19T11:46:52.979Z,56.00
2022-11-19T11:49:40.339Z,61.57
2022-11-19T11:52:08.263Z,56.53
2022-11-19T11:54:35.630Z,57.07
2022-11-19T11:57:17.723Z,62.03
2022-11-19T11:59:45.302Z,64.80
2022-11-19T12:02:22.083Z,63.33
2022-11-19T12:04:52.349Z,64.13
2022-11-19T12:07:22.484Z,65.57
2022-11-19T12:10:08.475Z,66.00
2022-11-19T12:12:38.620Z,72.13
2022-11-19T12:15:14.627Z,75.00
2022-11-19T12:17:41.713Z,65.47
2022-11-19T12:20:17.907Z,62.70
2022-11-19T12:23:00.375Z,62.80
2022-11-19T12:25:30.948Z,66.30
2022-11-19T12:28:07.202Z,66.47
2022-11-19T12:30:42.806Z,66.23
2022-11-19T12:33:20.218Z,65.97
2022-11-19T12:36:04.929Z,68.37
2022-11-19T12:38:40.638Z,72.07
2022-11-19T12:41:36.958Z,80.13
2022-11-19T12:44:09.905Z,71.03
2022-11-19T12:46:43.010Z,60.93
2022-11-19T12:49:22.410Z,61.37
2022-11-19T12:52:02.117Z,63.07
2022-11-19T12:54:47.881Z,60.10
2022-11-19T12:57:29.163Z,62.67
2022-11-19T13:00:08.566Z,62.40
2022-11-19T13:02:38.340Z,53.43
2022-11-19T13:05:08.239Z,61.73
2022-11-19T13:07:40.818Z,58.80
2022-11-19T13:10:28.823Z,65.63
2022-11-19T13:12:57.968Z,63.67
2022-11-19T13:15:28.843Z,63.30
2022-11-19T13:17:57.236Z,59.53
2022-11-19T13:20:43.211Z,61.67
2022-11-19T13:23:13.804Z,58.83
2022-11-19T13:25:43.051Z,56.10
2022-11-19T13:28:48.821Z,59.87
2022-11-19T13:31:39.180Z,59.93
2022-11-19T13:34:17.657Z,62.73
2022-11-19T13:36:55.421Z,64.23
2022-11-19T13:39:27.282Z,56.83
2022-11-19T13:42:13.468Z,55.10
2022-11-19T13:44:43.658Z,56.43
2022-11-19T13:47:13.652Z,59.33
2022-11-19T13:49:46.371Z,68.73
2022-11-19T13:52:26.859Z,68.80
2022-11-19T13:54:54.892Z,65.97
2022-11-19T13:57:42.126Z,65.57
2022-11-19T14:00:22.510Z,64.77
2022-11-19T14:03:03.730Z,65.40
2022-11-19T14:05:36.675Z,64.60
2022-11-19T14:08:03.751Z,62.43
2022-11-19T14:10:49.312Z,73.43
2022-11-19T14:13:22.462Z,70.67
2022-11-19T14:16:24.610Z,72.50
2022-11-19T14:19:12.100Z,66.07
2022-11-19T14:21:57.923Z,67.73
2022-11-19T14:24:46.501Z,66.30
2022-11-19T14:27:23.373Z,71.57
2022-11-19T14:29:50.457Z,65.60
2022-11-19T14:32:18.471Z,67.97
2022-11-19T14:34:50.125Z,66.83
2022-11-19T14:37:23.080Z,75.03
2022-11-19T14:40:02.245Z,66.97
2022-11-19T14:42:29.349Z,63.83
2022-11-19T14:45:05.514Z,67.00
2022-11-19T14:47:38.127Z,69.43
2022-11-19T14:50:09.851Z,67.63
2022-11-19T14:52:50.326Z,59.43
2022-11-19T14:55:17.399Z,59.57
2022-11-19T14:57:44.936Z,67.90
2022-11-19T15:00:14.925Z,70.20
2022-11-19T15:02:46.097Z,69.67
2022-11-19T15:05:13.168Z,72.77
2022-11-19T15:07:41.914Z,68.77
2022-11-19T15:10:15.253Z,73.97
2022-11-19T15:12:45.529Z,71.27
2022-11-19T15:15:24.503Z,66.10
2022-11-19T15:17:51.614Z,68.43
2022-11-19T15:20:22.368Z,67.63
2022-11-19T15:23:04.744Z,64.10
2022-11-19T15:25:35.026Z,64.83
2022-11-19T15:28:02.106Z,67.73
2022-11-19T15:30:39.306Z,68.27
2022-11-19T15:33:09.546Z,70.60
2022-11-19T15:35:55.226Z,64.43
2022-11-19T15:38:22.597Z,66.57
2022-11-19T15:40:52.018Z,70.53
2022-11-19T15:43:22.247Z,66.90
2022-11-19T15:46:01.914Z,75.80
2022-11-19T15:48:35.991Z,66.63
2022-11-19T15:51:03.953Z,67.50
2022-11-19T15:53:31.329Z,80.10
2022-11-19T15:55:58.397Z,75.77
2022-11-19T15:58:27.147Z,68.57
2022-11-19T16:00:55.209Z,68.90
2022-11-19T16:03:22.788Z,65.50
2022-11-19T16:06:09.427Z,77.33
2022-11-19T16:08:37.212Z,78.47
2022-11-19T16:11:23.529Z,81.60
2022-11-19T16:14:10.477Z,86.80
2022-11-19T16:16:56.567Z,86.20
2022-11-19T16:19:23.835Z,82.33
2022-11-19T16:22:00.649Z,83.43
2022-11-19T16:24:57.470Z,91.03
2022-11-19T16:27:25.516Z,86.83
2022-11-19T16:29:52.731Z,92.17
2022-11-19T16:32:21.046Z,87.53
2022-11-19T16:34:48.418Z,92.67
2022-11-19T16:37:16.294Z,90.00
2022-11-19T16:39:44.567Z,89.37
2022-11-19T16:42:16.879Z,79.53
2022-11-19T16:44:46.038Z,80.67
2022-11-19T16:47:20.907Z,79.80
2022-11-19T16:49:50.794Z,81.63
2022-11-19T16:52:36.624Z,90.60
2022-11-19T16:55:05.057Z,93.07
2022-11-19T16:57:32.788Z,96.27
2022-11-19T17:00:01.957Z,102.00
2022-11-19T17:02:36.606Z,86.77
2022-11-19T17:05:08.763Z,81.87
2022-11-19T17:07:36.444Z,93.50
2022-11-19T17:10:09.310Z,85.43
2022-11-19T17:12:37.446Z,83.23
2022-11-19T17:15:24.077Z,82.23
2022-11-19T17:17:51.875Z,85.47
2022-11-19T17:20:29.270Z,86.60
2022-11-19T17:22:56.882Z,93.47
2022-11-19T17:25:24.082Z,94.47
2022-11-19T17:27:53.884Z,106.30
2022-11-19T17:30:22.148Z,105.67
2022-11-19T17:32:54.074Z,111.47
2022-11-19T17:35:40.397Z,91.40
2022-11-19T17:38:14.153Z,100.53
2022-11-19T17:40:45.098Z,107.00
2022-11-19T17:43:31.378Z,99.47
2022-11-19T17:45:58.503Z,81.47
2022-11-19T17:48:26.879Z,83.50
2022-11-19T17:50:54.587Z,80.73
2022-11-19T17:53:22.162Z,89.03
2022-11-19T17:55:50.258Z,89.73
2022-11-19T17:58:17.351Z,81.37
2022-11-19T18:00:44.620Z,81.73
2022-11-19T18:03:15.071Z,83.77
2022-11-19T18:05:44.898Z,81.90
2022-11-19T18:08:12.001Z,80.37
2022-11-19T18:10:39.137Z,80.93
2022-11-19T18:13:06.573Z,86.57
2022-11-19T18:15:33.668Z,78.47
2022-11-19T18:18:00.790Z,87.90
2022-11-19T18:20:27.868Z,88.40
2022-11-19T18:22:54.995Z,83.17
2022-11-19T18:25:22.141Z,76.70
2022-11-19T18:27:49.327Z,78.53
2022-11-19T18:30:16.918Z,87.40
2022-11-19T18:32:44.019Z,75.77
2022-11-19T18:35:18.621Z,74.90
2022-11-19T18:37:46.100Z,80.80
2022-11-19T18:40:13.637Z,73.97
2022-11-19T18:43:00.707Z,84.50
2022-11-19T18:45:27.919Z,84.40
2022-11-19T18:47:55.055Z,87.60
2022-11-19T18:50:26.823Z,86.80
2022-11-19T18:52:56.885Z,83.10
2022-11-19T18:55:24.039Z,88.37
2022-11-19T18:57:51.182Z,85.57
2022-11-19T19:00:18.586Z,89.67
2022-11-19T19:02:45.728Z,91.83
2022-11-19T19:05:12.836Z,93.77
2022-11-19T19:07:39.984Z,87.90
2022-11-19T19:10:07.438Z,83.33
2022-11-19T19:12:34.522Z,97.53
2022-11-19T19:15:01.647Z,89.27
2022-11-19T19:17:28.730Z,83.70
2022-11-19T19:19:55.893Z,80.13
2022-11-19T19:22:23.058Z,89.17
2022-11-19T19:24:53.897Z,107.50
2022-11-19T19:27:24.989Z,86.27
2022-11-19T19:29:52.114Z,91.40
2022-11-19T19:32:19.228Z,81.20
2022-11-19T19:34:46.326Z,76.83
2022-11-19T19:37:13.450Z,75.07
2022-11-19T19:39:40.572Z,77.17
2022-11-19T19:42:07.894Z,81.57
2022-11-19T19:44:35.080Z,78.80
2022-11-19T19:47:02.328Z,81.97
2022-11-19T19:49:29.862Z,82.07
2022-11-19T19:51:58.633Z,78.20
2022-11-19T19:54:26.031Z,73.70
2022-11-19T19:56:53.196Z,70.60
2022-11-19T19:59:20.499Z,73.77
2022-11-19T20:01:47.901Z,78.20
2022-11-19T20:04:15.088Z,81.20
2022-11-19T20:06:44.990Z,82.10
2022-11-19T20:09:12.131Z,84.57
2022-11-19T20:11:39.379Z,96.57
2022-11-19T20:14:06.539Z,85.17
2022-11-19T20:16:34.147Z,82.03
2022-11-19T20:19:01.850Z,87.80
2022-11-19T20:21:34.098Z,84.37
2022-11-19T20:24:02.466Z,86.63
2022-11-19T20:26:31.484Z,73.77
2022-11-19T20:29:00.699Z,81.20
2022-11-19T20:31:30.001Z,83.40
2022-11-19T20:33:58.311Z,85.40
2022-11-19T20:36:26.304Z,78.00
2022-11-19T20:38:53.750Z,73.47
2022-11-19T20:41:40.357Z,80.47
2022-11-19T20:44:20.573Z,80.97
2022-11-19T20:46:51.022Z,73.23
2022-11-19T20:49:19.021Z,76.40
2022-11-19T20:51:46.961Z,75.70
2022-11-19T20:54:14.287Z,74.90
2022-11-19T20:56:41.815Z,76.00
2022-11-19T20:59:09.117Z,80.27
2022-11-19T21:01:36.337Z,89.60
2022-11-19T21:04:03.532Z,83.00
2022-11-19T21:06:30.668Z,80.87
2022-11-19T21:08:57.841Z,82.43
2022-11-19T21:11:25.338Z,74.37
2022-11-19T21:13:52.478Z,76.47
2022-11-19T21:16:23.778Z,82.57
2022-11-19T21:18:51.206Z,89.77
2022-11-19T21:21:19.266Z,84.97
2022-11-19T21:23:46.826Z,83.03
2022-11-19T21:26:18.453Z,92.90
2022-11-19T21:28:49.302Z,77.17
2022-11-19T21:31:17.117Z,73.43
2022-11-19T21:33:44.610Z,72.93
2022-11-19T21:36:12.470Z,73.70
2022-11-19T21:38:39.920Z,69.40
2022-11-19T21:41:07.684Z,72.53
2022-11-19T21:43:35.309Z,72.50
2022-11-19T21:46:02.490Z,76.30
2022-11-19T21:48:30.831Z,77.73
2022-11-19T21:50:58.445Z,71.73
2022-11-19T21:53:25.550Z,75.23
2022-11-19T21:55:52.638Z,75.63
2022-11-19T21:58:19.740Z,80.37
2022-11-19T22:00:47.101Z,73.53
2022-11-19T22:03:14.526Z,79.03
2022-11-19T22:05:42.274Z,78.00
2022-11-19T22:08:09.419Z,84.63
2022-11-19T22:10:40.192Z,78.20
2022-11-19T22:13:10.510Z,83.23
2022-11-19T22:15:37.662Z,80.73
2022-11-19T22:18:04.870Z,80.03
2022-11-19T22:20:31.966Z,73.07
2022-11-19T22:22:59.043Z,71.33
2022-11-19T22:25:26.169Z,70.80
2022-11-19T22:27:53.263Z,69.93
2022-11-19T22:30:20.386Z,73.63
2022-11-19T22:32:47.469Z,75.73
2022-11-19T22:35:14.586Z,75.77
2022-11-19T22:37:41.659Z,71.93
2022-11-19T22:40:09.265Z,70.93
2022-11-19T22:42:36.369Z,70.07
2022-11-19T22:45:03.624Z,76.30
2022-11-19T22:47:30.783Z,76.50
2022-11-19T22:49:57.876Z,76.30
2022-11-19T22:52:24.992Z,75.87
2022-11-19T22:54:52.089Z,68.50
2022-11-19T22:57:19.167Z,75.67
2022-11-19T22:59:46.278Z,74.80
2022-11-19T23:02:13.371Z,74.90
2022-11-19T23:04:40.530Z,68.70
2022-11-19T23:07:08.526Z,70.00
2022-11-19T23:09:35.735Z,75.20
2022-11-19T23:12:21.493Z,70.53
2022-11-19T23:14:48.640Z,76.10
2022-11-19T23:17:15.766Z,73.30
2022-11-19T23:19:42.903Z,71.63
2022-11-19T23:22:10.006Z,71.87
2022-11-19T23:24:37.102Z,70.90
2022-11-19T23:27:04.212Z,71.03
2022-11-19T23:29:31.307Z,72.50
2022-11-19T23:31:58.393Z,73.40
2022-11-19T23:34:25.486Z,82.07
2022-11-19T23:36:53.364Z,67.53
2022-11-19T23:39:20.759Z,73.00
2022-11-19T23:41:48.128Z,76.03
2022-11-19T23:44:15.258Z,83.90
2022-11-19T23:46:42.446Z,81.20
2022-11-19T23:49:11.449Z,82.97
2022-11-19T23:51:38.833Z,80.77
2022-11-19T23:54:06.096Z,97.47
2022-11-19T23:56:34.489Z,80.37
2022-11-19T23:59:02.347Z,84.90
